Time;durP1;ratioP1;P1;durP2;ratioP2;P2;SDS_P1;SDS_P2;PMS_P1;PMS_P2;Temp;Humidity;BMP_temperature;BMP_pressure;BME280_temperature;BME280_humidity;BME280_pressure;Samples;Min_cycle;Max_cycle;Signal;HPM_P1;HPM_P2
2021/08/07 00:02:00;;;;;;;7.10;1.57;;;;;;;13.41;84.08;95887.94;3578090;39;20826;-74
2021/08/07 00:04:28;;;;;;;3.00;1.53;;;;;;;13.48;83.81;95888.19;3578262;39;20557;-74
2021/08/07 00:06:56;;;;;;;3.33;1.73;;;;;;;13.42;83.65;95894.03;3582804;39;20837;-72
2021/08/07 00:09:24;;;;;;;2.17;1.63;;;;;;;13.36;84.17;95891.97;3579617;39;20453;-73
2021/08/07 00:11:52;;;;;;;7.70;2.33;;;;;;;13.38;84.22;95887.41;3568313;39;21210;-73
2021/08/07 00:14:21;;;;;;;8.13;2.10;;;;;;;13.42;83.79;95878.25;3576752;39;20460;-73
2021/08/07 00:16:49;;;;;;;2.90;1.90;;;;;;;13.42;83.81;95865.09;3578469;39;20482;-72
2021/08/07 00:19:17;;;;;;;3.83;1.90;;;;;;;13.36;84.05;95871.75;3580904;39;20833;-71
2021/08/07 00:21:45;;;;;;;5.40;1.70;;;;;;;13.38;83.68;95866.34;3577694;39;20448;-74
2021/08/07 00:24:13;;;;;;;5.73;1.70;;;;;;;13.30;84.44;95864.44;3577281;39;20817;-72
2021/08/07 00:26:41;;;;;;;9.80;1.93;;;;;;;13.28;84.64;95858.44;3568988;40;20679;-73
2021/08/07 00:29:09;;;;;;;4.70;1.90;;;;;;;13.32;84.52;95869.56;3579012;39;20976;-75
2021/08/07 00:31:38;;;;;;;9.40;1.57;;;;;;;13.30;84.31;95874.13;3580368;39;20897;-72
2021/08/07 00:34:06;;;;;;;4.70;1.40;;;;;;;13.09;84.84;95874.22;3579021;39;20515;-72
2021/08/07 00:36:34;;;;;;;5.07;1.73;;;;;;;13.04;84.67;95869.41;3580346;39;20441;-73
2021/08/07 00:39:02;;;;;;;5.10;1.40;;;;;;;13.12;84.29;95872.16;3582924;39;20464;-72
2021/08/07 00:41:30;;;;;;;8.20;1.67;;;;;;;13.17;84.80;95869.09;3584455;39;20474;-74
2021/08/07 00:43:58;;;;;;;3.53;1.50;;;;;;;13.25;84.62;95867.44;3582516;39;20826;-74
2021/08/07 00:46:26;;;;;;;4.43;1.43;;;;;;;13.37;83.87;95860.28;3583425;39;20452;-73
2021/08/07 00:48:55;;;;;;;4.30;1.40;;;;;;;13.39;83.27;95839.94;3579005;39;20456;-72
2021/08/07 00:51:23;;;;;;;5.10;1.97;;;;;;;13.61;82.75;95862.44;3578237;39;21025;-73
2021/08/07 00:53:51;;;;;;;5.50;1.50;;;;;;;13.56;82.91;95867.28;3570447;39;21111;-73
2021/08/07 00:56:19;;;;;;;5.13;1.17;;;;;;;13.33;83.78;95853.63;3582107;39;20685;-73
2021/08/07 00:58:46;;;;;;;1.60;1.10;;;;;;;13.50;83.09;95846.81;3578278;39;20847;-75
2021/08/07 01:01:16;;;;;;;9.10;1.77;;;;;;;13.51;83.27;95840.59;3578814;39;21245;-74
2021/08/07 01:03:47;;;;;;;10.47;1.43;;;;;;;13.62;82.82;95835.16;3576124;39;20465;-73
2021/08/07 01:06:27;;;;;;;3.47;1.30;;;;;;;13.74;82.54;95848.13;3580112;39;20484;-73
2021/08/07 01:09:06;;;;;;;3.53;1.37;;;;;;;13.76;82.05;95843.56;3579923;39;20718;-73
2021/08/07 01:11:42;;;;;;;2.83;1.40;;;;;;;13.51;83.48;95840.59;3581486;39;20483;-74
2021/08/07 01:14:10;;;;;;;2.53;1.63;;;;;;;13.55;82.91;95833.25;3569716;40;21152;-74
2021/08/07 01:16:40;;;;;;;2.93;1.20;;;;;;;12.94;83.76;95837.03;3580775;39;20438;-73
2021/08/07 01:19:14;;;;;;;3.13;1.37;;;;;;;12.52;86.04;95842.50;3574444;39;20865;-73
2021/08/07 01:21:49;;;;;;;4.33;1.50;;;;;;;12.95;84.93;95839.50;3570911;39;20469;-73
2021/08/07 01:24:23;;;;;;;5.20;1.57;;;;;;;13.10;84.54;95837.28;3575710;39;20837;-75
2021/08/07 01:27:17;;;;;;;5.23;1.80;;;;;;;13.30;84.42;95826.78;3575972;40;20513;-74
2021/08/07 01:29:48;;;;;;;13.07;1.67;;;;;;;13.60;83.26;95829.22;3574326;39;20854;-73
2021/08/07 01:32:17;;;;;;;8.67;2.07;;;;;;;13.64;83.44;95819.22;3583394;39;20443;-73
2021/08/07 01:34:45;;;;;;;4.97;1.87;;;;;;;13.65;83.38;95826.97;3578473;39;20470;-73
2021/08/07 01:37:14;;;;;;;4.90;2.23;;;;;;;13.67;83.26;95828.66;3569756;39;20794;-73
2021/08/07 01:39:46;;;;;;;3.73;1.23;;;;;;;13.68;83.14;95819.78;3575893;39;21109;-74
2021/08/07 01:42:14;;;;;;;3.87;1.67;;;;;;;13.29;84.79;95825.09;3577704;39;20987;-73
2021/08/07 01:44:42;;;;;;;2.27;1.33;;;;;;;13.14;85.58;95815.00;3574642;39;20833;-74
2021/08/07 01:47:19;;;;;;;7.17;1.50;;;;;;;13.28;84.99;95815.56;3580209;39;20459;-74
2021/08/07 01:49:54;;;;;;;3.77;1.60;;;;;;;13.16;84.71;95810.44;3578549;39;20750;-74
2021/08/07 01:52:27;;;;;;;7.60;1.67;;;;;;;13.23;84.70;95819.44;3577895;39;20520;-75
2021/08/07 01:54:59;;;;;;;2.40;1.40;;;;;;;13.33;85.40;95826.50;3579559;39;20467;-74
2021/08/07 01:57:32;;;;;;;2.80;1.23;;;;;;;13.30;85.66;95822.34;3582410;39;20883;-74
2021/08/07 02:00:21;;;;;;;4.20;1.67;;;;;;;13.26;85.57;95829.66;3578876;39;20568;-75
2021/08/07 02:02:51;;;;;;;4.00;1.60;;;;;;;13.37;85.63;95817.38;3581147;39;20466;-76
2021/08/07 02:05:20;;;;;;;3.37;1.47;;;;;;;13.45;85.56;95825.38;3578266;39;20861;-74
2021/08/07 02:07:51;;;;;;;2.00;1.13;;;;;;;13.47;85.72;95823.44;3579250;39;20571;-74
2021/08/07 02:10:20;;;;;;;2.47;1.20;;;;;;;13.54;85.36;95813.16;3578726;39;20487;-75
2021/08/07 02:12:49;;;;;;;4.80;1.70;;;;;;;13.54;85.19;95806.09;3581187;39;20445;-73
2021/08/07 02:15:18;;;;;;;4.50;1.40;;;;;;;13.55;84.88;95796.44;3570730;39;20470;-74
2021/08/07 02:17:47;;;;;;;4.93;1.47;;;;;;;13.57;85.20;95790.03;3580336;39;20504;-75
2021/08/07 02:20:18;;;;;;;3.30;1.43;;;;;;;13.59;85.01;95795.97;3580994;39;20754;-74
2021/08/07 02:22:49;;;;;;;4.97;1.70;;;;;;;13.26;86.05;95805.19;3581796;39;20846;-74
2021/08/07 02:25:20;;;;;;;3.50;1.50;;;;;;;13.40;86.28;95801.31;3579396;39;20544;-74
2021/08/07 02:27:49;;;;;;;15.07;1.80;;;;;;;13.39;85.12;95797.03;3580665;39;20441;-74
2021/08/07 02:30:18;;;;;;;3.63;1.57;;;;;;;13.26;85.78;95795.47;3581110;39;20906;-73
2021/08/07 02:32:47;;;;;;;1.93;1.37;;;;;;;13.34;86.13;95796.63;3585496;39;20940;-73
2021/08/07 02:35:18;;;;;;;5.40;1.40;;;;;;;13.43;86.01;95791.34;3579183;39;20553;-74
2021/08/07 02:37:46;;;;;;;15.83;1.43;;;;;;;13.54;84.75;95782.41;3582409;39;20437;-75
2021/08/07 02:40:15;;;;;;;3.73;1.40;;;;;;;13.61;84.48;95782.69;3580465;39;20461;-73
2021/08/07 02:42:44;;;;;;;3.60;1.60;;;;;;;13.59;84.87;95784.63;3582342;39;20545;-74
2021/08/07 02:45:13;;;;;;;7.27;1.67;;;;;;;13.63;84.12;95784.19;3579936;39;20751;-74
2021/08/07 02:47:41;;;;;;;4.93;2.00;;;;;;;13.65;84.05;95774.34;3579971;39;20737;-73
2021/08/07 02:50:10;;;;;;;5.40;1.53;;;;;;;13.67;84.24;95770.78;3580384;39;21089;-72
2021/08/07 02:52:39;;;;;;;2.17;1.33;;;;;;;13.54;84.63;95771.06;3579803;39;20472;-73
2021/08/07 02:55:08;;;;;;;9.30;1.90;;;;;;;13.31;85.62;95770.59;3573729;39;21079;-74
2021/08/07 02:57:36;;;;;;;1.87;1.30;;;;;;;13.41;85.20;95774.03;3583081;39;20465;-74
2021/08/07 03:00:06;;;;;;;5.63;1.67;;;;;;;13.40;85.03;95767.94;3582374;39;20868;-74
2021/08/07 03:02:34;;;;;;;3.93;1.47;;;;;;;13.40;85.14;95775.81;3581981;39;20447;-73
2021/08/07 03:05:02;;;;;;;6.00;1.53;;;;;;;13.31;85.56;95766.19;3581171;39;20764;-74
2021/08/07 03:07:29;;;;;;;1.40;1.30;;;;;;;13.27;85.83;95762.16;3581422;39;20464;-74
2021/08/07 03:09:59;;;;;;;9.63;1.47;;;;;;;13.33;85.46;95766.88;3582545;39;20781;-73
2021/08/07 03:12:27;;;;;;;4.50;1.60;;;;;;;13.18;85.10;95739.34;3583089;39;20671;-75
2021/08/07 03:14:55;;;;;;;8.10;1.63;;;;;;;13.28;85.45;95770.84;3580218;39;20483;-73
2021/08/07 03:17:22;;;;;;;6.30;1.70;;;;;;;13.24;85.65;95767.69;3581536;39;20441;-72
2021/08/07 03:19:50;;;;;;;3.53;1.47;;;;;;;13.37;84.75;95775.31;3583454;39;20844;-73
2021/08/07 03:22:19;;;;;;;2.47;1.20;;;;;;;13.40;84.58;95775.00;3580955;39;20910;-74
2021/08/07 03:24:47;;;;;;;2.20;1.40;;;;;;;13.46;84.51;95766.53;3583160;39;20545;-74
2021/08/07 03:27:17;;;;;;;15.90;2.00;;;;;;;13.37;84.91;95770.03;3579620;39;20846;-74
2021/08/07 03:29:44;;;;;;;3.73;1.43;;;;;;;13.40;85.00;95759.22;3570192;39;20823;-72
2021/08/07 03:32:14;;;;;;;2.17;1.10;;;;;;;13.57;84.21;95755.03;3581719;39;20458;-74
2021/08/07 03:34:42;;;;;;;2.27;1.50;;;;;;;13.49;84.31;95758.38;3582226;39;20835;-73
2021/08/07 03:37:11;;;;;;;3.87;1.23;;;;;;;13.54;83.71;95753.50;3581525;39;20463;-73
2021/08/07 03:39:39;;;;;;;5.53;1.53;;;;;;;13.46;84.08;95745.50;3580149;39;20857;-74
2021/08/07 03:42:07;;;;;;;9.00;2.17;;;;;;;13.54;84.13;95745.59;3577224;39;20656;-73
2021/08/07 03:44:37;;;;;;;3.33;1.20;;;;;;;13.44;84.78;95743.00;3582160;39;20767;-72
2021/08/07 03:47:04;;;;;;;3.60;1.60;;;;;;;13.49;83.97;95736.50;3583210;39;20859;-72
2021/08/07 03:49:32;;;;;;;3.80;1.60;;;;;;;13.47;84.36;95738.47;3582848;39;20907;-72
2021/08/07 03:52:00;;;;;;;4.60;1.40;;;;;;;13.45;84.53;95743.84;3579411;39;20488;-72
2021/08/07 03:54:28;;;;;;;7.57;1.77;;;;;;;13.50;84.12;95746.03;3580760;39;20495;-71
2021/08/07 03:56:56;;;;;;;3.00;1.30;;;;;;;13.47;84.31;95752.44;3581565;39;20526;-73
2021/08/07 03:59:24;;;;;;;6.30;1.40;;;;;;;13.52;83.69;95742.28;3579574;39;20954;-72
2021/08/07 04:01:53;;;;;;;2.47;1.57;;;;;;;13.54;83.29;95732.44;3582529;39;20459;-73
2021/08/07 04:04:22;;;;;;;4.67;1.50;;;;;;;13.55;83.17;95736.75;3578557;39;21132;-72
2021/08/07 04:06:50;;;;;;;3.90;1.23;;;;;;;13.64;82.79;95732.41;3578257;39;20810;-73
2021/08/07 04:09:18;;;;;;;7.10;1.73;;;;;;;13.69;82.44;95729.34;3568288;39;20464;-71
2021/08/07 04:11:46;;;;;;;5.33;1.33;;;;;;;13.74;82.11;95727.94;3580457;39;20707;-72
2021/08/07 04:14:14;;;;;;;3.40;1.40;;;;;;;13.75;82.36;95731.41;3572517;39;20465;-72
2021/08/07 04:16:42;;;;;;;10.37;2.07;;;;;;;13.73;82.69;95730.72;3568521;39;20973;-72
2021/08/07 04:19:11;;;;;;;10.60;1.43;;;;;;;13.68;82.53;95725.91;3579023;39;20483;-74
2021/08/07 04:21:39;;;;;;;3.97;1.80;;;;;;;13.62;82.75;95729.94;3578141;39;20479;-72
2021/08/07 04:24:07;;;;;;;4.67;1.77;;;;;;;13.60;82.59;95726.63;3584741;39;20545;-72
2021/08/07 04:26:35;;;;;;;7.60;1.60;;;;;;;13.55;82.77;95726.22;3570943;40;20546;-71
2021/08/07 04:29:03;;;;;;;6.83;1.60;;;;;;;13.69;82.24;95717.03;3581160;39;20908;-73
2021/08/07 04:31:31;;;;;;;8.03;1.90;;;;;;;13.81;81.59;95717.66;3570265;39;20670;-74
2021/08/07 04:33:59;;;;;;;2.00;1.20;;;;;;;13.86;81.15;95712.78;3584138;39;20828;-74
2021/08/07 04:36:28;;;;;;;4.23;1.33;;;;;;;13.89;81.95;95701.94;3573609;40;20815;-74
2021/08/07 04:38:56;;;;;;;3.83;1.20;;;;;;;13.85;80.62;95704.03;3571377;39;20553;-73
2021/08/07 04:41:24;;;;;;;3.67;1.40;;;;;;;13.89;81.37;95701.13;3580622;39;20440;-74
2021/08/07 04:43:52;;;;;;;5.50;1.37;;;;;;;13.93;80.69;95708.56;3580013;39;20476;-75
2021/08/07 04:46:20;;;;;;;5.67;1.33;;;;;;;14.14;80.35;95720.66;3577939;39;20513;-73
2021/08/07 04:48:48;;;;;;;12.80;1.40;;;;;;;14.16;80.17;95722.16;3580439;39;20924;-73
2021/08/07 04:51:16;;;;;;;4.10;1.60;;;;;;;14.03;81.43;95730.44;3579504;39;20529;-72
2021/08/07 04:53:45;;;;;;;5.20;1.30;;;;;;;14.11;80.94;95736.72;3578277;39;20542;-74
2021/08/07 04:56:13;;;;;;;7.13;1.57;;;;;;;14.10;80.06;95735.91;3579188;39;20913;-72
2021/08/07 04:58:41;;;;;;;3.80;1.40;;;;;;;14.06;80.91;95742.44;3576763;39;20685;-73
2021/08/07 05:01:09;;;;;;;2.97;1.33;;;;;;;14.01;81.63;95748.16;3569620;39;20464;-73
2021/08/07 05:03:37;;;;;;;4.27;2.00;;;;;;;14.13;81.75;95747.94;3580180;39;20474;-73
2021/08/07 05:06:05;;;;;;;3.77;1.40;;;;;;;14.03;81.85;95748.00;3575937;40;20764;-73
2021/08/07 05:08:37;;;;;;;1.70;1.30;;;;;;;13.99;82.36;95744.81;3575685;40;20553;-73
2021/08/07 05:11:06;;;;;;;5.77;1.80;;;;;;;14.12;82.30;95735.78;3577384;39;20546;-73
2021/08/07 05:13:34;;;;;;;2.43;1.30;;;;;;;14.23;80.70;95719.78;3572706;40;20958;-74
2021/08/07 05:16:02;;;;;;;6.60;1.37;;;;;;;14.44;80.52;95720.31;3581544;39;20461;-74
2021/08/07 05:18:30;;;;;;;4.97;1.60;;;;;;;14.53;78.96;95707.19;3579754;39;20742;-74
2021/08/07 05:20:58;;;;;;;7.20;1.63;;;;;;;14.65;79.03;95708.66;3580432;39;20722;-74
2021/08/07 05:23:26;;;;;;;1.93;1.10;;;;;;;14.67;78.67;95704.03;3582295;39;20510;-74
2021/08/07 05:25:54;;;;;;;1.60;1.33;;;;;;;14.72;78.25;95714.97;3578477;39;20907;-74
2021/08/07 05:28:23;;;;;;;8.00;1.17;;;;;;;14.70;77.15;95719.56;3582793;39;21111;-73
2021/08/07 05:30:51;;;;;;;6.53;1.77;;;;;;;14.65;76.82;95713.91;3577093;39;20576;-74
2021/08/07 05:33:19;;;;;;;4.30;1.20;;;;;;;14.59;78.22;95720.63;3570082;39;20805;-74
2021/08/07 05:35:50;;;;;;;2.60;1.20;;;;;;;14.79;77.63;95709.91;3580879;39;20938;-73
2021/08/07 05:38:18;;;;;;;2.90;1.30;;;;;;;14.79;76.93;95696.72;3581534;39;20461;-74
2021/08/07 05:40:46;;;;;;;10.03;1.40;;;;;;;15.07;76.67;95702.69;3579796;39;20478;-73
2021/08/07 05:43:14;;;;;;;9.03;1.10;;;;;;;15.23;75.62;95704.63;3581933;39;20799;-74
2021/08/07 05:45:43;;;;;;;9.07;1.80;;;;;;;15.61;74.22;95713.88;3577686;39;20561;-74
2021/08/07 05:48:12;;;;;;;2.53;1.33;;;;;;;15.77;73.18;95712.31;3578207;39;20475;-76
2021/08/07 05:50:40;;;;;;;2.37;1.03;;;;;;;15.77;72.97;95726.34;3571197;40;20460;-74
2021/08/07 05:53:08;;;;;;;3.77;1.40;;;;;;;15.91;72.23;95738.09;3581543;39;20733;-74
2021/08/07 05:55:36;;;;;;;11.03;1.30;;;;;;;15.87;72.38;95731.47;3579494;39;20480;-73
2021/08/07 05:58:04;;;;;;;1.63;1.20;;;;;;;15.82;72.30;95725.88;3580591;39;20844;-73
2021/08/07 06:00:32;;;;;;;5.10;1.10;;;;;;;16.17;71.49;95722.19;3578828;39;20849;-74
2021/08/07 06:03:01;;;;;;;4.53;1.20;;;;;;;16.26;71.03;95717.72;3582318;39;20441;-74
2021/08/07 06:05:29;;;;;;;1.80;1.10;;;;;;;16.23;70.51;95726.00;3579914;39;20895;-74
2021/08/07 06:07:57;;;;;;;5.67;1.50;;;;;;;16.50;70.19;95729.34;3580170;39;20785;-74
2021/08/07 06:10:25;;;;;;;5.50;2.17;;;;;;;16.67;71.09;95723.06;3579296;39;20473;-73
2021/08/07 06:12:53;;;;;;;2.90;1.10;;;;;;;16.78;70.34;95728.03;3578044;39;20449;-73
2021/08/07 06:15:21;;;;;;;3.07;1.13;;;;;;;16.68;70.06;95727.38;3570802;39;20485;-73
2021/08/07 06:17:49;;;;;;;4.93;1.33;;;;;;;16.47;70.28;95727.03;3579315;39;20457;-74
2021/08/07 06:20:19;;;;;;;4.63;1.10;;;;;;;16.68;69.79;95711.53;3578457;39;20600;-75
2021/08/07 06:22:47;;;;;;;4.87;1.30;;;;;;;16.85;68.98;95706.25;3571157;39;20793;-74
2021/08/07 06:25:15;;;;;;;3.30;1.53;;;;;;;17.00;68.31;95701.97;3580602;39;20464;-73
2021/08/07 06:27:42;;;;;;;4.50;1.20;;;;;;;17.09;67.22;95706.25;3580774;39;20822;-74
2021/08/07 06:30:11;;;;;;;2.80;1.27;;;;;;;16.90;67.62;95706.59;3578469;39;20456;-73
2021/08/07 06:32:39;;;;;;;3.17;0.97;;;;;;;16.92;67.93;95697.50;3577719;39;21135;-73
2021/08/07 06:35:08;;;;;;;1.57;1.00;;;;;;;17.13;67.17;95683.75;3577597;39;20669;-73
2021/08/07 06:37:37;;;;;;;6.63;1.03;;;;;;;17.38;65.99;95681.84;3567607;40;20707;-72
2021/08/07 06:40:07;;;;;;;3.80;1.00;;;;;;;17.44;66.80;95661.81;3580401;39;20563;-73
2021/08/07 06:42:34;;;;;;;2.63;1.00;;;;;;;17.72;66.36;95675.47;3579721;39;20829;-73
2021/08/07 06:45:03;;;;;;;5.83;1.30;;;;;;;17.66;66.14;95681.44;3569274;39;20457;-73
2021/08/07 06:47:31;;;;;;;2.00;1.10;;;;;;;17.70;65.93;95687.22;3576843;39;20507;-73
2021/08/07 06:49:59;;;;;;;4.87;1.37;;;;;;;17.35;68.19;95702.56;3580526;39;20825;-73
2021/08/07 06:52:27;;;;;;;6.40;1.10;;;;;;;17.33;67.13;95696.63;3575396;40;20810;-78
2021/08/07 06:54:57;;;;;;;2.77;1.07;;;;;;;18.24;65.60;95694.44;3575156;39;20856;-74
2021/08/07 06:57:25;;;;;;;6.60;1.10;;;;;;;18.84;63.71;95691.03;3576312;39;20441;-74
2021/08/07 06:59:54;;;;;;;5.07;1.30;;;;;;;18.92;63.01;95690.16;3580545;39;20833;-73
2021/08/07 07:02:22;;;;;;;5.27;1.30;;;;;;;18.68;63.27;95670.75;3570494;39;20497;-75
2021/08/07 07:04:51;;;;;;;4.67;1.57;;;;;;;18.70;62.76;95666.09;3584214;39;20461;-74
2021/08/07 07:07:19;;;;;;;5.13;1.10;;;;;;;19.44;61.27;95681.31;3569855;39;20850;-73
2021/08/07 07:09:47;;;;;;;2.80;1.20;;;;;;;19.86;60.36;95700.31;3578263;39;20721;-74
2021/08/07 07:12:17;;;;;;;4.23;1.10;;;;;;;19.55;61.23;95675.56;3576485;39;20699;-73
2021/08/07 07:14:45;;;;;;;6.50;1.40;;;;;;;19.36;61.73;95690.19;3577481;39;20460;-73
2021/08/07 07:17:13;;;;;;;4.53;1.20;;;;;;;19.17;62.91;95696.88;3568981;39;20705;-74
2021/08/07 07:19:41;;;;;;;3.40;1.20;;;;;;;19.14;61.57;95710.50;3577340;39;20852;-75
2021/08/07 07:22:09;;;;;;;3.43;1.20;;;;;;;19.03;63.97;95718.06;3577683;39;20468;-74
2021/08/07 07:24:37;;;;;;;3.37;1.43;;;;;;;18.96;63.48;95720.63;3577787;39;20453;-74
2021/08/07 07:27:05;;;;;;;1.93;1.10;;;;;;;18.84;64.30;95717.56;3579034;39;20760;-72
2021/08/07 07:29:35;;;;;;;7.53;1.50;;;;;;;18.76;63.51;95714.97;3580512;39;20838;-73
2021/08/07 07:32:05;;;;;;;6.33;1.20;;;;;;;18.51;64.93;95720.44;3583345;39;20443;-73
2021/08/07 07:34:33;;;;;;;7.13;1.40;;;;;;;18.55;65.56;95721.72;3581488;39;20805;-73
2021/08/07 07:37:06;;;;;;;5.00;1.20;;;;;;;18.62;65.93;95719.19;3581535;39;20841;-72
2021/08/07 07:39:35;;;;;;;5.27;1.83;;;;;;;18.75;65.24;95722.06;3570698;39;20477;-73
2021/08/07 07:42:04;;;;;;;4.67;1.23;;;;;;;18.75;64.64;95714.09;3574764;39;20513;-74
2021/08/07 07:44:31;;;;;;;3.50;1.10;;;;;;;18.69;64.06;95704.22;3578628;39;20453;-73
2021/08/07 07:47:01;;;;;;;5.83;1.17;;;;;;;18.87;63.63;95700.47;3581573;39;20428;-73
2021/08/07 07:49:29;;;;;;;1.97;1.00;;;;;;;19.08;63.13;95692.66;3571026;39;20788;-74
2021/08/07 07:51:57;;;;;;;4.20;1.40;;;;;;;19.59;60.32;95670.72;3578678;39;20460;-73
2021/08/07 07:54:25;;;;;;;3.80;1.27;;;;;;;19.69;60.44;95673.09;3583554;39;20463;-76
2021/08/07 07:56:53;;;;;;;6.77;1.60;;;;;;;19.49;59.71;95678.97;3583202;39;20898;-73
2021/08/07 07:59:21;;;;;;;4.10;1.20;;;;;;;19.51;58.33;95668.97;3571226;39;20767;-74
2021/08/07 08:01:49;;;;;;;4.23;1.67;;;;;;;19.48;59.42;95677.31;3571759;40;20538;-74
2021/08/07 08:04:19;;;;;;;3.40;0.90;;;;;;;19.51;58.57;95665.50;3580707;39;21146;-74
2021/08/07 08:06:47;;;;;;;8.00;4.60;;;;;;;19.72;57.88;95662.13;3571741;39;20468;-74
2021/08/07 08:09:15;;;;;;;5.60;1.50;;;;;;;19.50;58.36;95662.03;3580857;39;20549;-75
2021/08/07 08:11:43;;;;;;;1.60;1.10;;;;;;;19.40;56.77;95669.44;3580878;39;20949;-72
2021/08/07 08:14:11;;;;;;;1.97;1.20;;;;;;;19.13;57.90;95661.09;3583904;39;20468;-73
2021/08/07 08:16:39;;;;;;;5.13;1.40;;;;;;;19.25;57.69;95650.00;3570934;39;20469;-73
2021/08/07 08:19:07;;;;;;;9.73;1.00;;;;;;;19.38;57.51;95650.22;3575763;39;20451;-72
2021/08/07 08:21:36;;;;;;;3.60;1.00;;;;;;;18.99;58.09;95648.63;3587879;39;20724;-73
2021/08/07 08:24:05;;;;;;;2.00;1.10;;;;;;;19.11;58.73;95655.16;3586761;39;20452;-72
2021/08/07 08:26:36;;;;;;;6.13;1.17;;;;;;;19.16;57.10;95654.59;3582024;39;20895;-74
2021/08/07 08:29:04;;;;;;;4.10;1.40;;;;;;;19.21;57.68;95662.84;3587591;39;20708;-72
2021/08/07 08:31:32;;;;;;;6.03;1.20;;;;;;;19.18;57.45;95660.53;3581058;39;20922;-74
2021/08/07 08:34:00;;;;;;;3.27;1.13;;;;;;;19.37;57.29;95648.56;3580154;39;20446;-74
2021/08/07 08:36:28;;;;;;;2.03;0.93;;;;;;;19.18;58.13;95647.28;3584591;39;20533;-73
2021/08/07 08:38:58;;;;;;;3.17;0.90;;;;;;;19.28;57.46;95639.03;3583031;39;20446;-74
2021/08/07 08:41:28;;;;;;;2.43;1.00;;;;;;;19.39;57.05;95646.56;3576496;39;20457;-73
2021/08/07 08:43:57;;;;;;;2.90;1.10;;;;;;;19.60;55.94;95653.78;3585182;39;20481;-72
2021/08/07 08:46:25;;;;;;;3.13;1.10;;;;;;;19.64;55.96;95647.09;3574575;39;20469;-73
2021/08/07 08:48:55;;;;;;;4.10;1.40;;;;;;;19.78;56.68;95645.47;3583410;39;21054;-75
2021/08/07 08:51:26;;;;;;;9.40;1.33;;;;;;;19.90;57.39;95638.66;3581692;39;20424;-72
2021/08/07 08:53:54;;;;;;;2.83;1.43;;;;;;;19.47;56.36;95635.84;3563649;39;20450;-72
2021/08/07 08:56:24;;;;;;;3.63;0.90;;;;;;;19.29;57.24;95640.72;3562620;40;20451;-73
2021/08/07 08:58:52;;;;;;;4.70;1.27;;;;;;;19.28;57.49;95639.03;3562676;39;20461;-74
2021/08/07 09:01:20;;;;;;;1.57;0.80;;;;;;;19.22;57.41;95639.78;3561772;40;20435;-71
2021/08/07 09:03:48;;;;;;;4.03;1.27;;;;;;;19.32;56.90;95654.41;3558370;40;20692;-73
2021/08/07 09:06:16;;;;;;;8.93;4.73;;;;;;;19.23;56.25;95649.38;3558858;40;20898;-72
2021/08/07 09:09:02;;;;;;;5.63;1.23;;;;;;;18.98;57.41;95647.00;3560622;40;20455;-74
2021/08/07 09:11:32;;;;;;;3.10;1.10;;;;;;;19.07;57.34;95651.22;3565119;40;20475;-76
2021/08/07 09:14:20;;;;;;;3.17;1.10;;;;;;;19.23;57.55;95652.03;3559305;40;20955;-74
2021/08/07 09:17:05;;;;;;;3.83;1.10;;;;;;;19.37;57.29;95648.56;3560339;40;20449;-72
2021/08/07 09:19:57;;;;;;;4.03;1.40;;;;;;;19.21;58.33;95643.44;3558998;39;20912;-72
2021/08/07 09:22:28;;;;;;;3.83;1.00;;;;;;;19.38;58.04;95642.25;3563112;40;20454;-72
2021/08/07 09:25:09;;;;;;;3.60;1.20;;;;;;;19.37;57.90;95640.59;3560345;40;20759;-74
2021/08/07 09:27:40;;;;;;;1.40;1.20;;;;;;;19.36;58.51;95645.06;3567166;40;20458;-74
2021/08/07 09:30:26;;;;;;;4.57;1.20;;;;;;;19.40;57.67;95648.19;3568942;39;20508;-74
2021/08/07 09:32:55;;;;;;;3.13;1.17;;;;;;;19.27;58.40;95653.34;3564176;40;20548;-74
2021/08/07 09:35:25;;;;;;;5.90;1.33;;;;;;;19.39;59.96;95646.56;3572315;40;21159;-75
2021/08/07 09:38:14;;;;;;;1.20;0.80;;;;;;;19.46;58.60;95657.25;3562110;40;20455;-72
2021/08/07 09:40:47;;;;;;;3.43;1.43;;;;;;;19.07;60.36;95658.31;3562695;40;20474;-75
2021/08/07 09:43:19;;;;;;;3.80;1.03;;;;;;;18.90;61.68;95666.44;3562410;40;20540;-73
2021/08/07 09:45:59;;;;;;;7.30;1.40;;;;;;;18.74;61.15;95683.31;3564995;40;20809;-73
2021/08/07 09:48:34;;;;;;;4.87;1.30;;;;;;;18.52;62.36;95697.38;3563300;40;20451;-74
2021/08/07 09:51:24;;;;;;;2.80;1.03;;;;;;;18.29;62.49;95697.41;3564268;40;20461;-73
2021/08/07 09:54:06;;;;;;;5.70;1.70;;;;;;;18.26;63.32;95703.84;3561825;39;20482;-74
2021/08/07 09:56:52;;;;;;;3.93;1.30;;;;;;;18.20;64.12;95704.53;3563070;40;20856;-74
2021/08/07 09:59:23;;;;;;;4.80;2.27;;;;;;;18.16;66.42;95695.31;3564846;40;20710;-74
2021/08/07 10:01:52;;;;;;;2.80;1.27;;;;;;;18.11;65.67;95692.34;3561084;40;20909;-73
2021/08/07 10:04:22;;;;;;;4.10;1.30;;;;;;;17.93;69.97;95687.31;3560318;40;20917;-73
2021/08/07 10:07:05;;;;;;;4.13;1.40;;;;;;;17.84;73.27;95686.53;3561254;40;20431;-74
2021/08/07 10:09:34;;;;;;;4.90;1.53;;;;;;;17.76;69.58;95686.53;3558612;40;20843;-73
2021/08/07 10:12:04;;;;;;;4.30;1.57;;;;;;;17.61;68.89;95697.00;3557051;40;20780;-71
2021/08/07 10:14:34;;;;;;;3.67;1.43;;;;;;;17.41;71.69;95683.34;3559893;40;20458;-72
2021/08/07 10:17:04;;;;;;;9.50;4.90;;;;;;;17.36;72.61;95673.25;3559239;40;20504;-75
2021/08/07 10:19:34;;;;;;;4.90;1.30;;;;;;;17.31;71.66;95677.44;3558621;40;20838;-71
2021/08/07 10:22:05;;;;;;;8.90;1.50;;;;;;;17.24;74.52;95671.16;3561897;40;21015;-71
2021/08/07 10:24:34;;;;;;;8.17;1.93;;;;;;;16.76;75.11;95647.25;3561063;39;21089;-71
2021/08/07 10:27:04;;;;;;;3.33;1.40;;;;;;;16.99;75.23;95657.97;3558093;40;20566;-73
2021/08/07 10:29:55;;;;;;;7.50;2.43;;;;;;;17.02;78.81;95646.25;3558549;40;20777;-75
2021/08/07 10:32:40;;;;;;;8.13;2.53;;;;;;;16.69;79.21;95647.09;3560140;40;20489;-72
2021/08/07 10:35:10;;;;;;;6.77;2.10;;;;;;;16.67;79.84;95635.03;3559652;40;20496;-75
2021/08/07 10:37:39;;;;;;;5.10;2.10;;;;;;;16.63;81.76;95623.97;3558086;40;20492;-75
2021/08/07 10:40:09;;;;;;;4.07;1.70;;;;;;;16.36;81.54;95640.97;3560073;40;20455;-73
2021/08/07 10:42:38;;;;;;;10.00;1.93;;;;;;;16.43;81.86;95635.88;3564391;40;20752;-74
2021/08/07 10:45:08;;;;;;;7.43;1.87;;;;;;;16.48;82.63;95646.75;3562428;40;20780;-75
2021/08/07 10:47:41;;;;;;;4.17;1.63;;;;;;;16.36;82.18;95651.53;3561271;40;20556;-74
2021/08/07 10:50:35;;;;;;;9.80;2.30;;;;;;;16.02;84.16;95660.41;3559856;40;21145;-74
2021/08/07 10:53:05;;;;;;;9.50;2.07;;;;;;;15.68;86.27;95656.00;3558941;40;20826;-72
2021/08/07 10:55:45;;;;;;;7.07;2.30;;;;;;;15.76;86.42;95666.63;3563127;40;20825;-75
2021/08/07 10:58:36;;;;;;;3.70;2.00;;;;;;;15.37;88.21;95661.81;3560368;40;20517;-75
2021/08/07 11:01:32;;;;;;;6.10;2.17;;;;;;;15.50;86.69;95668.47;3565605;40;20526;-76
2021/08/07 11:04:09;;;;;;;3.70;1.70;;;;;;;15.48;86.71;95652.78;3562622;40;20449;-71
2021/08/07 11:06:58;;;;;;;8.17;2.07;;;;;;;15.48;85.45;95665.97;3564161;40;20430;-78
2021/08/07 11:09:29;;;;;;;8.70;2.43;;;;;;;15.51;86.96;95657.75;3564593;40;20568;-72
2021/08/07 11:12:20;;;;;;;4.53;2.03;;;;;;;15.66;87.02;95654.50;3554791;40;20458;-73
2021/08/07 11:14:50;;;;;;;8.80;2.60;;;;;;;15.59;87.49;95662.25;3558364;40;20567;-74
2021/08/07 11:17:35;;;;;;;15.73;6.10;;;;;;;15.79;88.68;95668.09;3562132;40;20466;-73
2021/08/07 11:20:07;;;;;;;6.03;3.00;;;;;;;15.77;86.95;95662.16;3563516;40;20547;-75
2021/08/07 11:23:10;;;;;;;11.07;2.20;;;;;;;15.62;89.18;95670.66;3562472;40;20465;-73
2021/08/07 11:26:03;;;;;;;8.53;2.60;;;;;;;15.56;88.37;95667.81;3564980;40;20472;-73
2021/08/07 11:28:33;;;;;;;5.70;2.43;;;;;;;15.48;88.88;95679.16;3563436;40;20583;-74
2021/08/07 11:31:28;;;;;;;10.07;3.20;;;;;;;15.53;89.74;95673.44;3561476;40;20832;-75
2021/08/07 11:34:29;;;;;;;9.20;2.47;;;;;;;15.58;89.44;95685.16;3551773;40;20704;-74
2021/08/07 11:37:21;;;;;;;7.03;2.67;;;;;;;15.45;89.36;95684.78;3563457;40;20723;-74
2021/08/07 11:40:18;;;;;;;6.10;2.53;;;;;;;15.45;89.85;95684.78;3560074;40;20835;-75
2021/08/07 11:42:50;;;;;;;3.83;2.43;;;;;;;15.39;90.99;95688.03;3552160;40;20470;-73
2021/08/07 11:45:21;;;;;;;7.33;2.17;;;;;;;15.28;91.39;95690.94;3562544;40;20461;-74
2021/08/07 11:47:53;;;;;;;4.80;2.27;;;;;;;15.16;90.39;95682.47;3562507;40;20459;-74
2021/08/07 11:50:23;;;;;;;14.03;2.50;;;;;;;15.34;90.82;95679.75;3562652;40;20478;-76
2021/08/07 11:52:52;;;;;;;9.10;1.60;;;;;;;15.37;90.28;95679.47;3568475;40;20468;-74